Time;durP1;ratioP1;P1;durP2;ratioP2;P2;SDS_P1;SDS_P2;PMS_P1;PMS_P2;Temp;Humidity;BMP_temperature;BMP_pressure;BME280_temperature;BME280_humidity;BME280_pressure;Samples;Min_cycle;Max_cycle;Signal;HPM_P1;HPM_P2
2024/03/21 00:01:49;;;;;;;35.42;21.85;;;;;;;10.48;100.00;101726.69;6111520;23;20077;-75
2024/03/21 00:04:15;;;;;;;33.13;22.67;;;;;;;10.46;100.00;101724.25;6113682;23;20037;-76
2024/03/21 00:06:41;;;;;;;29.90;20.25;;;;;;;10.46;100.00;101729.63;6111501;23;20495;-75
2024/03/21 00:09:09;;;;;;;30.50;21.20;;;;;;;10.43;100.00;101724.75;6087140;23;20100;-75
2024/03/21 00:11:35;;;;;;;37.55;24.15;;;;;;;10.42;100.00;101722.31;6112759;23;20460;-77
2024/03/21 00:14:00;;;;;;;33.55;22.63;;;;;;;10.41;100.00;101721.50;6113039;23;20100;-77
2024/03/21 00:16:26;;;;;;;37.08;23.42;;;;;;;10.40;100.00;101719.88;6113062;23;20089;-76
2024/03/21 00:18:52;;;;;;;36.83;24.92;;;;;;;10.42;100.00;101711.59;6111283;23;20018;-75
2024/03/21 00:21:17;;;;;;;44.55;27.85;;;;;;;10.41;100.00;101705.41;6112501;23;20671;-74
2024/03/21 00:23:43;;;;;;;41.33;28.52;;;;;;;10.42;100.00;101703.56;6111006;23;20022;-74
2024/03/21 00:26:08;;;;;;;40.35;26.02;;;;;;;10.44;100.00;101704.16;6086968;23;20024;-76
2024/03/21 00:28:34;;;;;;;41.65;27.65;;;;;;;10.43;100.00;101697.97;6112360;23;20009;-75
2024/03/21 00:31:00;;;;;;;38.00;24.70;;;;;;;10.43;100.00;101697.13;6110747;23;20061;-77
2024/03/21 00:33:27;;;;;;;36.33;23.92;;;;;;;10.42;100.00;101698.19;6087034;23;20439;-74
2024/03/21 00:35:52;;;;;;;35.22;24.02;;;;;;;10.42;100.00;101696.31;6087829;23;20524;-75
2024/03/21 00:38:18;;;;;;;30.23;20.65;;;;;;;10.41;100.00;101705.41;6109548;23;20013;-77
2024/03/21 00:40:44;;;;;;;38.42;26.60;;;;;;;10.41;100.00;101688.53;6087351;23;20017;-77
2024/03/21 00:43:10;;;;;;;37.20;24.65;;;;;;;10.38;100.00;101689.88;6110118;23;20014;-76
2024/03/21 00:45:36;;;;;;;35.88;23.52;;;;;;;10.38;100.00;101687.19;6111561;23;20014;-76
2024/03/21 00:48:02;;;;;;;38.50;26.10;;;;;;;10.38;100.00;101693.34;6110990;23;20342;-76
2024/03/21 00:50:29;;;;;;;40.72;26.52;;;;;;;10.39;100.00;101696.84;6112565;23;20021;-77
2024/03/21 00:52:55;;;;;;;38.47;24.38;;;;;;;10.39;100.00;101696.84;6062674;23;20148;-77
2024/03/21 00:55:21;;;;;;;46.20;27.73;;;;;;;10.39;100.00;101694.16;6113045;23;20024;-76
2024/03/21 00:57:47;;;;;;;40.13;24.17;;;;;;;10.39;100.00;101686.13;6114454;23;20010;-76
2024/03/21 01:00:13;;;;;;;40.05;24.70;;;;;;;10.39;100.00;101686.13;6087692;23;20025;-76
2024/03/21 01:02:43;;;;;;;47.13;29.25;;;;;;;10.37;100.00;101680.22;6063320;23;20053;-76
2024/03/21 01:05:13;;;;;;;40.63;25.60;;;;;;;10.37;100.00;101682.88;6112674;23;20535;-77
2024/03/21 01:07:39;;;;;;;43.20;26.13;;;;;;;10.36;100.00;101671.38;6112257;23;20017;-76
2024/03/21 01:10:05;;;;;;;32.30;20.15;;;;;;;10.35;100.00;101679.63;6113289;23;20329;-78
2024/03/21 01:12:31;;;;;;;39.88;27.52;;;;;;;10.34;100.00;101672.66;6111769;23;20021;-75
2024/03/21 01:14:56;;;;;;;38.42;26.88;;;;;;;10.33;100.00;101666.50;6110593;23;20022;-76
2024/03/21 01:17:23;;;;;;;33.00;22.35;;;;;;;10.32;100.00;101672.09;6114046;23;20013;-75
2024/03/21 01:19:49;;;;;;;37.50;22.17;;;;;;;10.31;100.00;101665.94;6111828;23;20017;-74
2024/03/21 01:22:14;;;;;;;34.45;23.88;;;;;;;10.30;100.00;101672.34;6112088;23;20769;-76
2024/03/21 01:24:44;;;;;;;42.05;27.33;;;;;;;10.29;100.00;101669.88;6139266;23;20013;-76
2024/03/21 01:27:10;;;;;;;36.80;24.95;;;;;;;10.29;100.00;101664.53;6089682;23;20009;-75
2024/03/21 01:29:36;;;;;;;33.47;22.60;;;;;;;10.28;100.00;101658.38;6114339;23;20022;-76
2024/03/21 01:32:01;;;;;;;45.53;28.30;;;;;;;10.29;100.00;101656.50;6088627;23;20025;-77
2024/03/21 01:34:27;;;;;;;43.50;28.45;;;;;;;10.28;100.00;101652.22;6115630;23;20020;-75
2024/03/21 01:36:53;;;;;;;33.22;22.38;;;;;;;10.27;100.00;101650.59;6089360;23;20018;-75
2024/03/21 01:39:20;;;;;;;35.30;21.17;;;;;;;10.27;100.00;101650.59;6113051;23;20348;-76
2024/03/21 01:41:45;;;;;;;29.27;18.95;;;;;;;10.27;100.00;101642.56;6112687;23;20014;-76
2024/03/21 01:44:15;;;;;;;35.40;22.70;;;;;;;10.25;100.00;101644.69;6112906;23;20386;-74
2024/03/21 01:46:41;;;;;;;27.30;18.10;;;;;;;10.24;100.00;101640.38;6113857;23;20017;-77
2024/03/21 01:49:08;;;;;;;;;;;;;;;10.24;100.00;101635.03;6113539;23;20109;-76
2024/03/21 01:51:33;;;;;;;26.88;17.92;;;;;;;10.22;100.00;101637.09;6113214;23;19920;-74
2024/03/21 01:53:59;;;;;;;40.30;24.15;;;;;;;10.22;100.00;101635.22;6114784;23;20029;-76
2024/03/21 01:56:25;;;;;;;40.25;25.75;;;;;;;10.22;100.00;101631.75;6089079;23;20321;-77
2024/03/21 01:58:50;;;;;;;40.78;26.15;;;;;;;10.21;100.00;101635.47;6113088;23;20018;-74
2024/03/21 02:01:32;;;;;;;34.10;23.83;;;;;;;10.20;100.00;101639.22;6114991;23;20010;-76
2024/03/21 02:04:00;;;;;;;38.53;26.50;;;;;;;10.20;100.00;101636.53;6088056;23;20339;-76
2024/03/21 02:06:28;;;;;;;42.08;25.60;;;;;;;10.20;100.00;101636.53;6137926;23;20072;-76
2024/03/21 02:08:54;;;;;;;45.97;29.38;;;;;;;10.21;100.00;101647.00;6063782;23;20029;-73
2024/03/21 02:11:22;;;;;;;46.65;28.13;;;;;;;10.22;100.00;101631.75;6088644;23;20049;-74
2024/03/21 02:13:52;;;;;;;47.33;30.23;;;;;;;10.22;100.00;101631.75;6087658;23;20024;-76
2024/03/21 02:16:21;;;;;;;44.35;28.67;;;;;;;10.21;100.00;101630.13;6112418;23;20014;-76
2024/03/21 02:18:49;;;;;;;49.30;29.48;;;;;;;10.20;100.00;101625.81;6114874;23;20009;-74
2024/03/21 02:24:01;;;;;;;41.97;28.48;;;;;;;10.17;100.00;101616.44;6091689;23;20077;-74
2024/03/21 02:26:27;;;;;;;51.65;32.28;;;;;;;10.19;100.00;101622.34;6113718;23;20009;-77
2024/03/21 02:28:52;;;;;;;48.00;28.77;;;;;;;10.19;100.00;101627.69;6111919;23;20017;-75
2024/03/21 02:31:22;;;;;;;48.20;28.75;;;;;;;10.21;100.00;101614.06;6114444;23;20576;-73
2024/03/21 02:33:48;;;;;;;54.47;29.33;;;;;;;10.21;100.00;101620.22;6112335;23;20160;-78
2024/03/21 02:36:15;;;;;;;49.75;30.98;;;;;;;10.22;100.00;101618.34;6113248;23;20014;-76
2024/03/21 02:38:41;;;;;;;;;;;;;;;10.22;100.00;101621.84;6113266;23;20014;-74
2024/03/21 02:41:07;;;;;;;50.35;27.55;;;;;;;10.21;100.00;101625.56;6115275;23;20347;-76
2024/03/21 02:43:32;;;;;;;45.08;28.05;;;;;;;10.21;100.00;101625.56;6064512;23;20021;-73
2024/03/21 02:45:59;;;;;;;;;;;;;;;10.24;100.00;101624.31;6116858;23;20020;-74
2024/03/21 02:48:28;;;;;;;38.33;23.50;;;;;;;10.22;100.00;101619.16;6113333;23;19912;-76
2024/03/21 02:50:53;;;;;;;;;;;;;;;10.25;100.00;101628.63;6115596;23;20064;-76
2024/03/21 02:53:19;;;;;;;33.88;18.52;;;;;;;10.24;100.00;101625.13;6086295;23;19913;-76
2024/03/21 02:55:45;;;;;;;36.53;20.58;;;;;;;10.25;100.00;101616.03;6112768;23;20014;-73
2024/03/21 02:58:11;;;;;;;35.47;17.67;;;;;;;10.24;100.00;101602.91;6086816;23;20410;-74
2024/03/21 03:00:36;;;;;;;30.80;17.45;;;;;;;10.24;100.00;101611.75;6112917;23;20009;-74
2024/03/21 03:03:02;;;;;;;27.10;15.27;;;;;;;10.23;100.00;101609.28;6112181;23;20044;-73
2024/03/21 03:05:28;;;;;;;25.95;15.70;;;;;;;10.23;100.00;101606.63;6113195;23;20088;-75
2024/03/21 03:07:54;;;;;;;30.58;17.48;;;;;;;10.23;100.00;101604.78;6086513;23;20108;-75
2024/03/21 03:10:20;;;;;;;29.80;16.38;;;;;;;10.22;100.00;101583.56;6110329;23;20014;-76
2024/03/21 03:12:45;;;;;;;34.22;17.42;;;;;;;10.23;100.00;101598.59;6112413;23;20195;-76
2024/03/21 03:15:11;;;;;;;32.05;18.08;;;;;;;10.20;100.00;101607.91;6112186;23;20022;-75
2024/03/21 03:17:37;;;;;;;33.60;17.42;;;;;;;10.19;100.00;101597.44;6113028;23;20072;-76
2024/03/21 03:20:03;;;;;;;35.85;17.17;;;;;;;10.18;100.00;101603.84;6113819;23;20013;-76
2024/03/21 03:22:29;;;;;;;27.92;15.48;;;;;;;10.16;100.00;101612.13;6087663;23;20006;-75
2024/03/21 03:24:55;;;;;;;28.70;15.32;;;;;;;10.17;100.00;101619.09;6112732;23;20021;-76
2024/03/21 03:27:21;;;;;;;27.88;16.10;;;;;;;10.18;100.00;101625.28;6087110;23;20025;-76
2024/03/21 03:29:47;;;;;;;29.52;16.35;;;;;;;10.20;100.00;101634.66;6089101;23;20097;-76
2024/03/21 03:32:13;;;;;;;31.15;17.00;;;;;;;10.22;100.00;101632.53;6086727;23;20022;-76
2024/03/21 03:37:23;;;;;;;30.73;17.52;;;;;;;10.24;100.00;101632.34;6111165;23;20090;-76
2024/03/21 03:39:49;;;;;;;33.78;17.60;;;;;;;10.24;100.00;101635.84;6087301;23;20102;-76
2024/03/21 03:42:15;;;;;;;33.05;18.00;;;;;;;10.26;100.00;101631.03;6110167;23;20511;-75
2024/03/21 03:44:40;;;;;;;31.67;15.43;;;;;;;10.26;100.00;101632.91;6111509;23;20021;-75
2024/03/21 03:47:06;;;;;;;27.38;13.90;;;;;;;10.26;100.00;101632.91;6109752;23;20053;-75
2024/03/21 03:49:33;;;;;;;25.13;12.48;;;;;;;10.28;100.00;101630.78;6111692;23;20388;-76
2024/03/21 03:51:59;;;;;;;22.88;13.45;;;;;;;10.27;100.00;101623.81;6086862;23;20013;-75
2024/03/21 03:54:25;;;;;;;22.52;12.40;;;;;;;10.25;100.00;101612.56;6111487;23;20020;-74
2024/03/21 03:56:50;;;;;;;19.00;11.27;;;;;;;10.25;100.00;101601.84;6112596;23;20335;-76
2024/03/21 03:59:16;;;;;;;23.75;12.45;;;;;;;10.23;100.00;101607.44;6086619;23;20607;-75
2024/03/21 04:01:42;;;;;;;20.40;10.45;;;;;;;10.22;100.00;101607.66;6087130;23;20049;-76
2024/03/21 04:04:09;;;;;;;17.90;10.93;;;;;;;10.24;100.00;101605.59;6086939;23;20022;-76
2024/03/21 04:06:34;;;;;;;20.23;10.20;;;;;;;10.24;100.00;101606.41;6087285;23;20022;-75
2024/03/21 04:09:00;;;;;;;18.02;9.18;;;;;;;10.23;100.00;101601.25;6110857;23;20020;-76
2024/03/21 04:11:26;;;;;;;17.00;9.20;;;;;;;10.23;100.00;101598.59;6111524;23;20339;-76
2024/03/21 04:13:51;;;;;;;15.80;9.10;;;;;;;10.25;100.00;101604.53;6113372;23;20468;-76
2024/03/21 04:16:18;;;;;;;16.80;8.98;;;;;;;10.27;100.00;101602.41;6114118;23;20402;-75
2024/03/21 04:18:44;;;;;;;15.38;8.75;;;;;;;10.28;100.00;101599.47;6089155;23;20010;-75
2024/03/21 04:21:11;;;;;;;15.85;8.27;;;;;;;10.28;100.00;101601.34;6113813;23;20024;-76
2024/03/21 04:23:37;;;;;;;15.52;8.77;;;;;;;10.30;100.00;101597.38;6113174;23;20009;-75
2024/03/21 04:26:03;;;;;;;13.13;7.93;;;;;;;10.29;100.00;101594.94;6138758;23;20020;-76
2024/03/21 04:28:28;;;;;;;12.90;7.30;;;;;;;10.30;100.00;101596.56;6113205;23;20621;-76
2024/03/21 04:30:54;;;;;;;11.85;7.93;;;;;;;10.30;100.00;101596.56;6089694;23;20025;-75
2024/03/21 04:33:20;;;;;;;13.13;8.23;;;;;;;10.29;100.00;101595.72;6063779;23;20021;-75
2024/03/21 04:35:45;;;;;;;12.93;7.65;;;;;;;10.29;100.00;101590.38;6115513;23;20472;-75
2024/03/21 04:38:11;;;;;;;14.98;8.60;;;;;;;10.28;100.00;101594.13;6087548;23;20013;-75
2024/03/21 04:40:37;;;;;;;14.57;7.50;;;;;;;10.28;100.00;101582.59;6114590;23;20018;-74
2024/03/21 04:43:03;;;;;;;11.68;7.25;;;;;;;10.27;100.00;101589.03;6113094;23;20463;-74
2024/03/21 04:45:29;;;;;;;13.88;8.18;;;;;;;10.26;100.00;101590.88;6113363;23;20021;-75
2024/03/21 04:47:55;;;;;;;14.05;7.15;;;;;;;10.26;100.00;101584.72;6137472;23;20337;-77
2024/03/21 04:50:22;;;;;;;13.90;7.85;;;;;;;10.26;100.00;101590.06;6088526;23;20770;-78
2024/03/21 04:52:48;;;;;;;11.63;7.13;;;;;;;10.26;100.00;101598.09;6115801;23;20401;-76
2024/03/21 04:55:14;;;;;;;13.98;7.72;;;;;;;10.26;100.00;101590.88;6090025;23;20665;-76
2024/03/21 04:57:40;;;;;;;13.45;7.90;;;;;;;10.26;100.00;101598.91;6115757;23;20502;-76
2024/03/21 05:00:10;;;;;;;10.82;6.63;;;;;;;10.26;100.00;101595.44;6090963;23;20017;-75
2024/03/21 05:02:36;;;;;;;12.10;6.63;;;;;;;10.25;100.00;101609.88;6090234;23;20429;-76
2024/03/21 05:05:04;;;;;;;15.30;8.38;;;;;;;10.26;100.00;101612.31;6067458;23;20026;-76
2024/03/21 05:07:33;;;;;;;13.48;7.68;;;;;;;10.27;100.00;101605.06;6116765;23;20504;-75
2024/03/21 05:09:59;;;;;;;16.55;8.80;;;;;;;10.25;100.00;101602.66;6114814;23;20026;-76
2024/03/21 05:12:26;;;;;;;15.35;8.77;;;;;;;10.25;100.00;101605.34;6136645;23;20022;-75
2024/03/21 05:14:52;;;;;;;14.60;8.05;;;;;;;10.24;100.00;101601.03;6089799;23;20017;-77
2024/03/21 05:17:19;;;;;;;12.68;8.00;;;;;;;10.24;100.00;101609.06;6112563;23;20073;-75
2024/03/21 05:19:49;;;;;;;14.43;7.95;;;;;;;10.25;100.00;101596.50;6114581;23;20048;-76
2024/03/21 05:22:16;;;;;;;16.20;8.98;;;;;;;10.25;100.00;101588.47;6114417;23;20397;-75
2024/03/21 05:24:42;;;;;;;13.85;7.85;;;;;;;10.22;100.00;101591.59;6114882;23;20010;-76
2024/03/21 05:27:09;;;;;;;13.77;9.18;;;;;;;10.22;100.00;101589.72;6114399;23;20602;-76
2024/03/21 05:29:35;;;;;;;14.68;8.88;;;;;;;10.21;100.00;101584.63;6089483;23;20021;-75
2024/03/21 05:32:02;;;;;;;12.55;7.28;;;;;;;10.21;100.00;101579.25;6113917;23;20014;-75
2024/03/21 05:34:28;;;;;;;17.35;9.50;;;;;;;10.23;100.00;101577.16;6115784;23;20588;-75
2024/03/21 05:36:53;;;;;;;15.73;9.95;;;;;;;10.20;100.00;101591.03;6115558;23;20024;-76
2024/03/21 05:39:19;;;;;;;16.27;9.60;;;;;;;10.20;100.00;101580.31;6115319;23;20014;-76
2024/03/21 05:41:46;;;;;;;16.73;9.98;;;;;;;10.21;100.00;101579.25;6114705;23;20029;-76
2024/03/21 05:44:12;;;;;;;15.63;9.10;;;;;;;10.18;100.00;101579.75;6114415;23;20352;-75
2024/03/21 05:46:37;;;;;;;15.57;8.82;;;;;;;10.17;100.00;101586.19;6087855;23;20456;-76
2024/03/21 05:49:03;;;;;;;13.10;8.05;;;;;;;10.16;100.00;101581.84;6112667;23;20459;-75
2024/03/21 05:51:29;;;;;;;13.73;8.65;;;;;;;10.17;100.00;101575.47;6114311;23;20014;-75
2024/03/21 05:53:54;;;;;;;12.98;7.80;;;;;;;10.18;100.00;101582.44;6112563;23;20021;-76
2024/03/21 05:56:20;;;;;;;13.00;8.75;;;;;;;10.17;100.00;101591.53;6064963;23;20022;-76
2024/03/21 05:58:45;;;;;;;13.60;7.82;;;;;;;10.17;100.00;101602.25;6114184;23;20044;-75
2024/03/21 06:03:40;;;;;;;13.52;7.97;;;;;;;10.14;100.00;101598.16;6117305;23;20014;-74
2024/03/21 06:06:06;;;;;;;11.63;7.13;;;;;;;10.12;100.00;101597.63;6117907;23;20017;-76
2024/03/21 06:08:32;;;;;;;15.48;9.35;;;;;;;10.11;100.00;101593.31;6116062;23;20017;-76
2024/03/21 06:10:58;;;;;;;11.65;7.85;;;;;;;10.09;100.00;101598.94;6117698;23;20024;-76
2024/03/21 06:13:24;;;;;;;11.35;7.50;;;;;;;10.11;100.00;101588.78;6114598;23;20021;-75
2024/03/21 06:15:50;;;;;;;11.55;8.20;;;;;;;10.08;100.00;101586.56;6116409;23;20022;-76
2024/03/21 06:18:16;;;;;;;12.07;7.60;;;;;;;10.09;100.00;101593.56;6113452;23;20017;-76
2024/03/21 06:20:42;;;;;;;13.32;8.30;;;;;;;10.09;100.00;101596.25;6115728;23;20468;-76
2024/03/21 06:23:07;;;;;;;13.32;8.63;;;;;;;10.05;100.00;101616.50;6114737;23;20129;-76
2024/03/21 06:25:33;;;;;;;24.88;13.30;;;;;;;9.92;100.00;101621.38;6114506;23;20033;-76
2024/03/21 06:28:00;;;;;;;30.08;18.60;;;;;;;9.79;100.00;101625.19;6090140;23;20033;-76
2024/03/21 06:30:25;;;;;;;33.10;18.23;;;;;;;9.65;100.00;101632.72;6089495;23;20451;-75
2024/03/21 06:32:53;;;;;;;28.00;16.83;;;;;;;9.57;100.00;101636.59;6089833;23;20014;-75
2024/03/21 06:35:19;;;;;;;21.50;13.20;;;;;;;9.41;100.00;101647.25;6114705;23;20025;-77
2024/03/21 06:37:44;;;;;;;;;;;;;;;9.33;100.00;101651.13;6114903;23;20022;-76
2024/03/21 06:40:11;;;;;;;15.50;10.55;;;;;;;9.20;100.00;101654.06;6091254;23;19974;-76
2024/03/21 06:42:37;;;;;;;17.67;10.27;;;;;;;9.15;100.00;101659.34;6114759;23;20010;-75
2024/03/21 06:45:04;;;;;;;16.88;10.38;;;;;;;9.03;100.00;101670.88;6090803;23;20014;-77
2024/03/21 06:47:30;;;;;;;17.58;9.98;;;;;;;8.95;100.00;101667.75;6089928;23;20456;-77
2024/03/21 06:49:56;;;;;;;14.30;9.32;;;;;;;8.86;100.00;101655.81;6115302;23;20036;-76
2024/03/21 06:52:25;;;;;;;13.57;8.48;;;;;;;8.83;100.00;101667.78;6115698;23;20487;-76
2024/03/21 06:54:51;;;;;;;15.55;9.55;;;;;;;8.82;100.00;101676.84;6090679;23;20089;-76
2024/03/21 06:57:17;;;;;;;15.30;8.40;;;;;;;8.78;100.00;101681.00;6114159;23;20018;-76
2024/03/21 06:59:43;;;;;;;15.60;8.68;;;;;;;8.73;100.00;101678.22;6114162;23;20017;-77
2024/03/21 07:02:11;;;;;;;14.57;8.45;;;;;;;8.68;100.00;101683.47;6115130;23;20014;-75
2024/03/21 07:04:36;;;;;;;12.35;8.13;;;;;;;8.62;100.00;101682.56;6089272;23;20080;-77
2024/03/21 07:07:02;;;;;;;12.13;8.25;;;;;;;8.57;100.00;101679.75;6089271;23;20041;-76
2024/03/21 07:09:28;;;;;;;12.95;8.07;;;;;;;8.59;100.00;101698.22;6114201;23;20020;-76
2024/03/21 07:11:54;;;;;;;11.52;7.15;;;;;;;8.59;100.00;101690.19;6115975;23;20105;-76
2024/03/21 07:14:19;;;;;;;12.88;7.18;;;;;;;8.58;100.00;101675.22;6114486;23;20013;-76
2024/03/21 07:16:45;;;;;;;12.95;6.85;;;;;;;8.58;100.00;101676.03;6113744;23;20403;-75
2024/03/21 07:19:11;;;;;;;10.57;7.22;;;;;;;8.57;100.00;101684.28;6116910;23;20037;-76
2024/03/21 07:21:36;;;;;;;9.32;6.45;;;;;;;8.58;100.00;101684.06;6116106;23;20010;-76
2024/03/21 07:24:02;;;;;;;11.85;7.50;;;;;;;8.59;100.00;101693.69;6114552;23;20051;-76
2024/03/21 07:26:29;;;;;;;10.52;7.57;;;;;;;8.59;100.00;101692.88;6114974;23;20093;-76
2024/03/21 07:28:54;;;;;;;10.38;7.10;;;;;;;8.56;100.00;101694.16;6113127;23;20022;-77
2024/03/21 07:31:20;;;;;;;10.18;6.97;;;;;;;8.57;100.00;101690.44;6090622;23;20507;-76
2024/03/21 07:33:51;;;;;;;11.30;8.38;;;;;;;8.51;100.00;101690.56;6090723;23;20018;-77
2024/03/21 07:36:19;;;;;;;13.32;7.43;;;;;;;8.45;100.00;101690.44;6091357;23;20014;-77
2024/03/21 07:38:46;;;;;;;11.48;7.20;;;;;;;8.43;100.00;101697.88;6115702;23;20017;-76
2024/03/21 07:41:12;;;;;;;11.68;7.50;;;;;;;8.42;100.00;101712.28;6090366;23;20013;-76
2024/03/21 07:43:40;;;;;;;14.13;8.45;;;;;;;8.38;100.00;101707.63;6113889;23;20014;-76
2024/03/21 07:46:06;;;;;;;11.02;7.10;;;;;;;8.37;100.00;101711.31;6092002;23;20088;-76
2024/03/21 07:48:32;;;;;;;14.43;7.80;;;;;;;8.37;100.00;101712.13;6114794;23;20005;-77
2024/03/21 07:50:58;;;;;;;10.90;7.20;;;;;;;8.35;100.00;101714.25;6137384;23;20010;-77
2024/03/21 07:53:23;;;;;;;14.63;8.27;;;;;;;8.35;100.00;101708.91;6112428;23;20020;-77
2024/03/21 07:55:49;;;;;;;14.05;8.35;;;;;;;8.31;100.00;101729.03;6114040;23;20101;-76
2024/03/21 07:58:15;;;;;;;14.95;8.43;;;;;;;8.32;100.00;101719.19;6113476;23;20077;-77
2024/03/21 08:00:41;;;;;;;12.70;7.53;;;;;;;8.31;100.00;101731.72;6114679;23;20014;-78
2024/03/21 08:03:06;;;;;;;11.88;7.22;;;;;;;8.31;100.00;101728.22;6114264;23;20594;-77
2024/03/21 08:05:32;;;;;;;17.42;7.93;;;;;;;8.30;100.00;101735.44;6114532;23;20018;-76
2024/03/21 08:07:57;;;;;;;14.43;7.38;;;;;;;8.25;100.00;101740.63;6113928;23;20021;-78
2024/03/21 08:10:23;;;;;;;16.52;6.15;;;;;;;8.24;100.00;101743.53;6116972;23;20018;-77
2024/03/21 08:12:49;;;;;;;11.25;5.90;;;;;;;8.25;100.00;101755.84;6066331;23;20014;-77
2024/03/21 08:15:15;;;;;;;13.70;6.18;;;;;;;8.25;100.00;101761.16;6065770;23;20033;-77
2024/03/21 08:17:40;;;;;;;10.70;5.10;;;;;;;8.26;100.00;101757.47;6112839;23;20325;-77
2024/03/21 08:20:07;;;;;;;12.48;5.15;;;;;;;8.28;100.00;101756.19;6114504;23;20508;-78
2024/03/21 08:22:33;;;;;;;11.90;5.30;;;;;;;8.34;100.00;101755.28;6087652;23;20014;-77
2024/03/21 08:24:58;;;;;;;9.27;4.32;;;;;;;8.29;100.00;101767.69;6089016;23;20025;-77
2024/03/21 08:27:24;;;;;;;7.28;4.10;;;;;;;8.30;100.00;101769.31;6112826;23;20812;-77
2024/03/21 08:29:50;;;;;;;7.40;4.15;;;;;;;8.25;100.00;101766.50;6114324;23;20033;-77
2024/03/21 08:32:21;;;;;;;7.90;4.72;;;;;;;8.28;100.00;101766.88;6088782;23;20046;-78
2024/03/21 08:34:48;;;;;;;9.13;5.18;;;;;;;8.26;100.00;101763.59;6090375;23;20129;-77
2024/03/21 08:37:17;;;;;;;;;;;;;;;8.23;100.00;101772.09;6116187;23;20472;-77
2024/03/21 08:39:42;;;;;;;7.95;3.97;;;;;;;8.24;100.00;101776.38;6090076;23;19916;-81
2024/03/21 08:42:08;;;;;;;7.68;3.85;;;;;;;8.23;100.00;101769.41;6114084;23;20021;-76
2024/03/21 08:44:34;;;;;;;7.45;4.20;;;;;;;8.24;100.00;101781.72;6089966;23;20014;-77
2024/03/21 08:46:59;;;;;;;7.22;4.35;;;;;;;8.21;100.00;101793.66;6088887;23;20018;-78
2024/03/21 08:49:25;;;;;;;10.93;5.63;;;;;;;8.20;100.00;101788.56;6114413;23;20016;-78
2024/03/21 08:51:51;;;;;;;8.55;4.95;;;;;;;8.21;100.00;101793.66;6089452;23;20058;-77
2024/03/21 08:54:17;;;;;;;11.32;6.18;;;;;;;8.19;100.00;101800.25;6114006;23;20041;-78
2024/03/21 08:56:44;;;;;;;9.45;5.68;;;;;;;8.22;100.00;101810.50;6113400;23;20755;-77
2024/03/21 08:59:10;;;;;;;9.15;5.43;;;;;;;8.23;100.00;101812.09;6113315;23;20022;-77
2024/03/21 09:01:35;;;;;;;11.40;5.97;;;;;;;8.22;100.00;101823.84;6089681;23;20019;-77
2024/03/21 09:04:01;;;;;;;9.18;5.32;;;;;;;8.23;100.00;101824.66;6090276;23;20013;-77
2024/03/21 09:06:30;;;;;;;12.88;7.20;;;;;;;8.23;100.00;101824.66;6088584;23;20101;-78
2024/03/21 09:08:57;;;;;;;15.95;8.65;;;;;;;8.18;100.00;101830.66;6086142;23;20060;-78
2024/03/21 09:11:22;;;;;;;16.52;9.13;;;;;;;8.21;100.00;101843.56;6115554;23;20033;-78
2024/03/21 09:13:48;;;;;;;16.80;8.80;;;;;;;8.24;100.00;101842.28;6088806;23;20161;-77
2024/03/21 09:16:14;;;;;;;14.35;9.18;;;;;;;8.22;100.00;101855.84;6114871;23;20407;-78
2024/03/21 09:18:43;;;;;;;15.35;9.85;;;;;;;8.23;100.00;101856.66;6137852;23;20022;-78
2024/03/21 09:21:12;;;;;;;14.75;8.98;;;;;;;8.26;100.00;101862.34;6114312;23;20006;-76
2024/03/21 09:23:38;;;;;;;13.98;9.35;;;;;;;8.28;100.00;101873.63;6088628;23;20010;-78
2024/03/21 09:26:04;;;;;;;14.25;9.27;;;;;;;8.30;100.00;101879.53;6090422;23;20010;-78
2024/03/21 09:28:30;;;;;;;16.45;9.20;;;;;;;8.32;100.00;101880.13;6113758;23;20109;-78
2024/03/21 09:30:56;;;;;;;15.60;9.18;;;;;;;8.32;100.00;101881.97;6114306;23;20041;-78
2024/03/21 09:33:23;;;;;;;14.45;9.30;;;;;;;8.38;100.00;101889.94;6114282;23;20041;-77
2024/03/21 09:35:57;;;;;;;14.63;8.75;;;;;;;8.45;100.00;101896.00;6137500;23;20464;-78
2024/03/21 09:38:22;;;;;;;13.82;9.27;;;;;;;8.52;100.00;101890.56;6112855;23;20018;-78
2024/03/21 09:40:48;;;;;;;12.82;7.32;;;;;;;8.60;100.00;101894.75;6117223;23;20024;-78
2024/03/21 09:43:15;;;;;;;11.60;7.85;;;;;;;8.64;100.00;101883.41;6090085;23;20053;-77
2024/03/21 09:45:44;;;;;;;12.35;7.45;;;;;;;8.73;100.00;101891.88;6066497;23;20080;-78
2024/03/21 09:48:10;;;;;;;11.57;7.40;;;;;;;8.81;100.00;101882.75;6115104;23;20104;-77
2024/03/21 09:50:38;;;;;;;10.20;6.78;;;;;;;8.87;100.00;101892.50;6090280;23;20078;-77
2024/03/21 09:53:04;;;;;;;13.38;8.05;;;;;;;8.97;100.00;101885.56;6089614;23;20013;-77
2024/03/21 09:55:30;;;;;;;14.15;9.18;;;;;;;9.07;100.00;101894.84;6115400;23;20025;-77
2024/03/21 09:57:55;;;;;;;16.10;10.75;;;;;;;9.17;100.00;101892.44;6090499;23;20018;-77
2024/03/21 10:00:21;;;;;;;19.30;10.68;;;;;;;9.30;100.00;101895.69;6092371;23;20018;-78
2024/03/21 10:02:47;;;;;;;15.27;9.65;;;;;;;9.43;100.00;101894.63;6112907;23;20006;-77
2024/03/21 10:05:23;;;;;;;17.48;9.52;;;;;;;9.51;100.00;101893.47;6091256;23;20467;-78
2024/03/21 10:07:49;;;;;;;14.00;8.73;;;;;;;9.57;100.00;101897.88;6114862;23;20017;-78
2024/03/21 10:10:15;;;;;;;14.23;9.13;;;;;;;9.58;100.00;101897.63;6092320;23;20041;-77
2024/03/21 10:12:41;;;;;;;15.00;9.48;;;;;;;9.57;100.00;101898.69;6114335;23;20794;-78
2024/03/21 10:15:13;;;;;;;16.17;9.48;;;;;;;9.61;100.00;101898.22;6117099;23;20109;-78
2024/03/21 10:17:42;;;;;;;;;;;;;;;9.68;100.00;101906.91;6089771;23;20597;-78
2024/03/21 10:20:12;;;;;;;15.70;9.02;;;;;;;9.71;100.00;101922.50;6115262;23;19917;-78
2024/03/21 10:22:44;;;;;;;15.50;10.25;;;;;;;9.67;100.00;101927.50;6115400;23;20014;-78
2024/03/21 10:25:13;;;;;;;13.73;9.48;;;;;;;9.68;100.00;101922.97;6090215;23;20037;-78
2024/03/21 10:27:41;;;;;;;15.90;10.18;;;;;;;9.67;100.00;101922.16;6112904;23;20049;-78
2024/03/21 10:30:20;;;;;;;15.65;10.27;;;;;;;9.65;100.00;101926.13;6089975;23;20036;-78
2024/03/21 10:32:47;;;;;;;18.52;11.63;;;;;;;9.65;100.00;101923.44;6114212;23;20014;-78
2024/03/21 10:35:17;;;;;;;17.15;11.48;;;;;;;9.71;100.00;101917.16;6114440;23;20020;-77
2024/03/21 10:37:44;;;;;;;12.50;7.88;;;;;;;9.73;100.00;101925.75;6113700;23;20026;-73
2024/03/21 10:40:16;;;;;;;9.75;6.97;;;;;;;9.84;100.00;101924.94;6116965;23;20468;-77
2024/03/21 10:42:49;;;;;;;9.57;6.32;;;;;;;9.91;100.00;101930.97;6115294;23;20025;-78
2024/03/21 10:45:16;;;;;;;9.77;5.32;;;;;;;9.98;100.00;101941.53;6091890;23;20033;-78
2024/03/21 10:47:52;;;;;;;7.53;5.28;;;;;;;9.99;100.00;101932.47;6115231;23;20171;-76
2024/03/21 10:50:23;;;;;;;5.63;3.63;;;;;;;9.88;100.00;101947.47;6115508;23;20359;-76
2024/03/21 10:52:53;;;;;;;4.78;3.40;;;;;;;9.91;100.00;101957.72;6114808;23;20460;-76
2024/03/21 10:55:20;;;;;;;4.43;3.08;;;;;;;9.85;100.00;101954.13;6116235;23;20114;-76
2024/03/21 10:57:51;;;;;;;5.22;3.50;;;;;;;9.88;100.00;101947.47;6114706;23;20009;-79
2024/03/21 11:00:21;;;;;;;4.93;3.10;;;;;;;9.91;100.00;101960.41;6116827;23;20045;-75
2024/03/21 11:02:51;;;;;;;4.20;2.72;;;;;;;9.91;100.00;101968.44;6116627;23;20085;-76
2024/03/21 11:05:21;;;;;;;4.90;2.60;;;;;;;9.93;100.00;101973.53;6117411;23;20109;-77
2024/03/21 11:07:47;;;;;;;5.10;3.13;;;;;;;9.93;100.00;101976.22;6115629;23;20028;-75
2024/03/21 11:10:18;;;;;;;4.10;2.90;;;;;;;9.87;100.00;101990.53;6116615;23;20014;-76
2024/03/21 11:12:45;;;;;;;5.20;3.25;;;;;;;9.83;100.00;101992.88;6115392;23;20356;-75
2024/03/21 11:15:11;;;;;;;5.30;3.33;;;;;;;9.79;100.00;102003.22;6140339;23;20020;-75
2024/03/21 11:17:38;;;;;;;5.32;3.80;;;;;;;9.73;100.00;102006.00;6089900;23;20093;-76